createdAt,value
2022-12-04T00:01:21.824Z,1.19
2022-12-04T00:03:54.330Z,1.19
2022-12-04T00:06:21.939Z,1.19
2022-12-04T00:08:49.105Z,1.21
2022-12-04T00:11:18.936Z,1.19
2022-12-04T00:13:45.764Z,1.19
2022-12-04T00:16:17.772Z,1.19
2022-12-04T00:18:48.414Z,1.18
2022-12-04T00:21:16.724Z,1.18
2022-12-04T00:23:43.973Z,1.18
2022-12-04T00:26:13.043Z,1.18
2022-12-04T00:28:43.604Z,1.19
2022-12-04T00:31:15.565Z,1.19
2022-12-04T00:33:42.266Z,1.18
2022-12-04T00:36:11.405Z,1.17
2022-12-04T00:38:44.695Z,1.18
2022-12-04T00:41:13.419Z,1.18
2022-12-04T00:43:40.110Z,1.19
2022-12-04T00:46:07.432Z,1.18
2022-12-04T00:48:33.956Z,1.17
2022-12-04T00:51:09.804Z,1.18
2022-12-04T00:53:36.202Z,1.17
2022-12-04T00:56:08.155Z,1.19
2022-12-04T00:58:36.866Z,1.19
2022-12-04T01:01:13.597Z,1.18
2022-12-04T01:03:41.146Z,1.18
2022-12-04T01:06:20.383Z,1.18
2022-12-04T01:08:51.473Z,1.19
2022-12-04T01:11:18.716Z,1.19
2022-12-04T01:13:46.358Z,1.18
2022-12-04T01:16:21.972Z,1.19
2022-12-04T01:18:49.595Z,1.18
2022-12-04T01:21:16.781Z,1.17
2022-12-04T01:23:46.406Z,1.18
2022-12-04T01:26:13.779Z,1.17
2022-12-04T01:28:40.809Z,1.18
2022-12-04T01:31:15.193Z,1.17
2022-12-04T01:33:43.006Z,1.17
2022-12-04T01:36:13.189Z,1.18
2022-12-04T01:38:42.449Z,1.17
2022-12-04T01:41:11.527Z,1.18
2022-12-04T01:43:38.946Z,1.17
2022-12-04T01:46:06.676Z,1.18
2022-12-04T01:48:37.584Z,1.16
2022-12-04T01:51:10.565Z,1.17
2022-12-04T01:53:42.194Z,1.16
2022-12-04T01:56:09.523Z,1.17
2022-12-04T01:58:41.929Z,1.16
2022-12-04T02:01:09.709Z,1.16
2022-12-04T02:03:39.516Z,1.17
2022-12-04T02:06:07.124Z,1.16
2022-12-04T02:08:35.947Z,1.16
2022-12-04T02:11:21.390Z,1.17
2022-12-04T02:14:05.530Z,1.16
2022-12-04T02:16:45.420Z,1.16
2022-12-04T02:19:39.058Z,1.15
2022-12-04T02:22:19.446Z,1.15
2022-12-04T02:25:23.261Z,1.14
2022-12-04T02:28:11.545Z,1.14
2022-12-04T02:30:41.410Z,1.12
2022-12-04T02:33:22.223Z,1.13
2022-12-04T02:35:55.318Z,1.13
2022-12-04T02:38:29.399Z,1.13
2022-12-04T02:41:01.205Z,1.13
2022-12-04T02:43:31.746Z,1.12
2022-12-04T02:46:05.731Z,1.13
2022-12-04T02:48:36.746Z,1.12
2022-12-04T02:51:06.781Z,1.11
2022-12-04T02:53:40.374Z,1.12
2022-12-04T02:56:11.877Z,1.10
2022-12-04T02:58:46.665Z,1.10
2022-12-04T03:01:20.086Z,1.08
2022-12-04T03:03:56.316Z,1.10
2022-12-04T03:06:24.704Z,1.10
2022-12-04T03:08:59.736Z,1.10
2022-12-04T03:11:31.319Z,1.10
2022-12-04T03:14:04.689Z,1.10
2022-12-04T03:16:40.735Z,1.10
2022-12-04T03:19:31.497Z,1.09
2022-12-04T03:22:05.060Z,1.09
2022-12-04T03:24:39.207Z,1.10
2022-12-04T03:27:14.025Z,1.09
2022-12-04T03:29:48.273Z,1.09
2022-12-04T03:32:40.387Z,1.08
2022-12-04T03:35:43.377Z,1.08
2022-12-04T03:38:21.299Z,1.08
2022-12-04T03:40:56.684Z,1.08
2022-12-04T03:43:33.187Z,1.07
2022-12-04T03:46:08.457Z,1.08
2022-12-04T03:48:42.669Z,1.07
2022-12-04T03:51:22.325Z,1.07
2022-12-04T03:54:02.705Z,1.06
2022-12-04T03:56:35.347Z,1.06
2022-12-04T03:59:18.711Z,1.06
2022-12-04T04:01:51.492Z,1.05
2022-12-04T04:04:32.322Z,1.06
2022-12-04T04:07:07.424Z,1.05
2022-12-04T04:09:37.125Z,1.05
2022-12-04T04:12:18.580Z,1.04
2022-12-04T04:15:14.532Z,1.03
2022-12-04T04:18:03.471Z,1.04
2022-12-04T04:21:03.492Z,1.05
2022-12-04T04:23:54.357Z,1.05
2022-12-04T04:26:22.809Z,1.06
2022-12-04T04:28:49.399Z,1.06
2022-12-04T04:31:45.301Z,1.05
2022-12-04T04:34:18.589Z,1.03
2022-12-04T04:36:54.789Z,1.04
2022-12-04T04:39:36.116Z,1.03
2022-12-04T04:42:10.606Z,1.02
2022-12-04T04:44:58.885Z,1.03
2022-12-04T04:47:43.026Z,1.02
2022-12-04T04:50:11.971Z,1.01
2022-12-04T04:52:42.170Z,1.01
2022-12-04T04:55:11.150Z,1.00
2022-12-04T04:57:37.694Z,1.01
2022-12-04T05:00:23.058Z,1.03
2022-12-04T05:02:50.479Z,1.01
2022-12-04T05:05:17.821Z,1.00
2022-12-04T05:07:46.542Z,1.00
2022-12-04T05:10:14.048Z,0.99
2022-12-04T05:12:40.525Z,0.97
2022-12-04T05:15:07.596Z,1.00
2022-12-04T05:17:35.737Z,0.99
2022-12-04T05:20:03.943Z,1.00
2022-12-04T05:22:37.753Z,0.99
2022-12-04T05:25:04.941Z,0.99
2022-12-04T05:27:34.044Z,0.98
2022-12-04T05:30:02.369Z,0.99
2022-12-04T05:32:29.661Z,0.99
2022-12-04T05:34:58.129Z,0.99
2022-12-04T05:37:31.861Z,0.98
2022-12-04T05:39:58.771Z,0.98
2022-12-04T05:42:27.775Z,0.99
2022-12-04T05:44:54.329Z,0.98
2022-12-04T05:47:22.509Z,0.98
2022-12-04T05:49:49.094Z,0.98
2022-12-04T05:52:23.440Z,0.98
2022-12-04T05:54:49.900Z,0.99
2022-12-04T05:57:16.396Z,0.98
2022-12-04T05:59:55.552Z,0.98
2022-12-04T06:02:25.022Z,0.99
2022-12-04T06:04:51.618Z,1.00
2022-12-04T06:07:20.397Z,0.99
2022-12-04T06:09:46.905Z,1.00
2022-12-04T06:12:13.396Z,0.99
2022-12-04T06:14:44.453Z,1.00
2022-12-04T06:17:10.933Z,1.00
2022-12-04T06:19:37.500Z,0.99
2022-12-04T06:22:04.085Z,0.98
2022-12-04T06:24:30.854Z,0.99
2022-12-04T06:29:47.656Z,0.99
2022-12-04T06:32:20.944Z,0.99
2022-12-04T06:34:53.428Z,1.00
2022-12-04T06:37:22.545Z,1.00
2022-12-04T06:39:49.434Z,0.98
2022-12-04T06:42:16.694Z,0.98
2022-12-04T06:44:43.212Z,0.97
2022-12-04T06:47:13.374Z,0.98
2022-12-04T06:49:40.200Z,0.97
2022-12-04T06:52:06.647Z,0.98
2022-12-04T06:54:33.126Z,0.98
2022-12-04T06:57:06.272Z,0.99
2022-12-04T06:59:34.035Z,0.98
2022-12-04T07:02:00.554Z,0.98
2022-12-04T07:04:27.257Z,0.98
2022-12-04T07:06:55.464Z,0.98
2022-12-04T07:09:22.012Z,0.98
2022-12-04T07:11:48.690Z,1.00
2022-12-04T07:14:15.197Z,1.00
2022-12-04T07:16:42.699Z,0.99
2022-12-04T07:19:20.230Z,1.00
2022-12-04T07:21:46.729Z,1.00
2022-12-04T07:24:16.307Z,1.01
2022-12-04T07:26:44.620Z,1.01
2022-12-04T07:29:11.771Z,1.01
2022-12-04T07:31:38.528Z,1.02
2022-12-04T07:34:07.321Z,1.03
2022-12-04T07:36:33.871Z,1.02
2022-12-04T07:39:00.479Z,1.05
2022-12-04T07:41:27.044Z,1.02
2022-12-04T07:43:54.329Z,1.03
2022-12-04T07:46:23.584Z,1.03
2022-12-04T07:48:52.543Z,1.04
2022-12-04T07:51:22.138Z,1.04
2022-12-04T07:53:49.985Z,1.06
2022-12-04T07:56:17.345Z,1.05
2022-12-04T07:58:44.210Z,1.05
2022-12-04T08:01:13.354Z,1.05
2022-12-04T08:03:47.103Z,1.06
2022-12-04T08:06:17.963Z,1.07
2022-12-04T08:08:44.924Z,1.09
2022-12-04T08:11:17.323Z,1.09
2022-12-04T08:13:44.366Z,1.10
2022-12-04T08:16:12.453Z,1.10
2022-12-04T08:18:40.315Z,1.11
2022-12-04T08:21:11.972Z,1.14
2022-12-04T08:23:40.404Z,1.16
2022-12-04T08:26:07.995Z,1.16
2022-12-04T08:28:35.480Z,1.14
2022-12-04T08:31:08.185Z,1.15
2022-12-04T08:33:35.919Z,1.18
2022-12-04T08:36:05.751Z,1.16
2022-12-04T08:38:34.567Z,1.16
2022-12-04T08:41:02.382Z,1.18
2022-12-04T08:43:29.540Z,1.18
2022-12-04T08:46:01.465Z,1.19
2022-12-04T08:48:30.834Z,1.19
2022-12-04T08:50:57.494Z,1.23
2022-12-04T08:53:24.805Z,1.22
2022-12-04T08:55:52.173Z,1.24
2022-12-04T08:58:19.972Z,1.26
2022-12-04T09:00:48.305Z,1.31
2022-12-04T09:03:23.556Z,1.33
2022-12-04T09:05:52.834Z,1.32
2022-12-04T09:08:21.381Z,1.30
2022-12-04T09:10:47.926Z,1.31
2022-12-04T09:13:16.155Z,1.33
2022-12-04T09:15:42.703Z,1.33
2022-12-04T09:18:09.354Z,1.33
2022-12-04T09:20:38.111Z,1.34
2022-12-04T09:23:05.791Z,1.35
2022-12-04T09:25:35.976Z,1.36
2022-12-04T09:28:02.678Z,1.34
2022-12-04T09:30:29.153Z,1.37
2022-12-04T09:32:56.239Z,1.42
2022-12-04T09:35:24.532Z,1.42
2022-12-04T09:37:51.081Z,1.42
2022-12-04T09:40:54.694Z,1.39
2022-12-04T09:43:51.047Z,1.34
2022-12-04T09:46:31.057Z,1.32
2022-12-04T09:49:02.220Z,1.31
2022-12-04T09:51:31.213Z,1.30
2022-12-04T09:54:04.006Z,1.28
2022-12-04T09:56:32.239Z,1.30
2022-12-04T09:59:10.749Z,1.30
2022-12-04T10:01:48.526Z,1.30
2022-12-04T10:04:17.276Z,1.28
2022-12-04T10:06:46.752Z,1.25
2022-12-04T10:09:22.452Z,1.23
2022-12-04T10:11:53.168Z,1.24
2022-12-04T10:14:55.772Z,1.18
2022-12-04T10:17:37.277Z,1.15
2022-12-04T10:20:19.162Z,1.13
2022-12-04T10:23:16.507Z,1.14
2022-12-04T10:25:49.586Z,1.11
2022-12-04T10:28:24.878Z,1.09
2022-12-04T10:30:57.346Z,1.09
2022-12-04T10:33:38.094Z,1.08
2022-12-04T10:39:38.585Z,1.00
2022-12-04T10:42:28.460Z,0.98
2022-12-04T10:44:59.393Z,0.98
2022-12-04T10:47:26.390Z,1.00
2022-12-04T10:50:02.485Z,0.97
2022-12-04T10:52:29.259Z,0.97
2022-12-04T10:54:59.682Z,0.95
2022-12-04T10:57:42.865Z,0.99
2022-12-04T11:00:34.940Z,0.99
2022-12-04T11:03:12.471Z,1.04
2022-12-04T11:05:45.917Z,1.06
2022-12-04T11:08:26.454Z,1.09
2022-12-04T11:11:06.297Z,1.11
2022-12-04T11:13:34.886Z,1.15
2022-12-04T11:16:01.711Z,1.18
2022-12-04T11:18:34.034Z,1.22
2022-12-04T11:21:07.155Z,1.25
2022-12-04T11:23:43.106Z,1.27
2022-12-04T11:26:10.848Z,1.29
2022-12-04T11:28:42.040Z,1.35
2022-12-04T11:31:15.292Z,1.44
2022-12-04T11:34:00.137Z,1.52
2022-12-04T11:36:33.311Z,1.60
2022-12-04T11:39:18.923Z,1.64
2022-12-04T11:41:47.397Z,1.71
2022-12-04T11:44:26.404Z,1.79
2022-12-04T11:46:55.982Z,1.85
2022-12-04T11:49:24.314Z,1.85
2022-12-04T11:51:59.885Z,1.84
2022-12-04T11:54:29.153Z,1.83
2022-12-04T11:57:23.289Z,1.80
2022-12-04T12:00:18.977Z,1.84
2022-12-04T12:03:20.536Z,1.75
2022-12-04T12:05:56.130Z,1.71
2022-12-04T12:08:45.146Z,1.72
2022-12-04T12:11:36.208Z,1.74
2022-12-04T12:14:38.338Z,1.71
2022-12-04T12:17:25.737Z,1.72
2022-12-04T12:20:19.543Z,1.61
2022-12-04T12:23:20.024Z,1.60
2022-12-04T12:26:04.249Z,1.56
2022-12-04T12:28:50.882Z,1.58
2022-12-04T12:31:30.766Z,1.55
2022-12-04T12:34:16.407Z,1.56
2022-12-04T12:36:49.777Z,1.61
2022-12-04T12:39:22.996Z,1.61
2022-12-04T12:41:55.930Z,1.56
2022-12-04T12:44:53.591Z,1.53
2022-12-04T12:47:30.246Z,1.51
2022-12-04T12:50:14.370Z,1.57
2022-12-04T12:52:49.625Z,1.51
2022-12-04T12:55:26.329Z,1.51
2022-12-04T12:58:06.648Z,1.53
2022-12-04T13:00:39.537Z,1.59
2022-12-04T13:03:25.301Z,1.59
2022-12-04T13:05:56.852Z,1.68
2022-12-04T13:08:29.662Z,1.67
2022-12-04T13:11:18.037Z,1.69
2022-12-04T13:13:52.955Z,1.65
2022-12-04T13:16:31.212Z,1.65
2022-12-04T13:19:07.648Z,1.68
2022-12-04T13:21:41.912Z,1.67
2022-12-04T13:24:37.468Z,1.75
2022-12-04T13:27:15.309Z,1.77
2022-12-04T13:29:59.446Z,1.79
2022-12-04T13:32:53.694Z,1.81
2022-12-04T13:35:58.924Z,1.75
2022-12-04T13:38:58.347Z,1.76
2022-12-04T13:41:29.368Z,1.79
2022-12-04T13:43:57.553Z,1.81
2022-12-04T13:46:24.209Z,1.85
2022-12-04T13:48:52.560Z,1.87
2022-12-04T13:51:39.504Z,1.84
2022-12-04T13:54:12.141Z,1.79
2022-12-04T13:56:44.466Z,1.79
2022-12-04T13:59:37.475Z,1.84
2022-12-04T14:02:22.597Z,1.84
2022-12-04T14:05:09.345Z,1.80
2022-12-04T14:07:39.559Z,1.81
2022-12-04T14:10:29.225Z,1.80
2022-12-04T14:13:07.085Z,1.80
2022-12-04T14:15:36.917Z,1.81
2022-12-04T14:18:17.645Z,1.85
2022-12-04T14:20:46.556Z,1.82
2022-12-04T14:23:23.356Z,1.80
2022-12-04T14:25:53.476Z,1.71
2022-12-04T14:28:42.184Z,1.67
2022-12-04T14:31:09.238Z,1.65
2022-12-04T14:34:02.937Z,1.60
2022-12-04T14:36:37.610Z,1.54
2022-12-04T14:39:23.442Z,1.48
2022-12-04T14:41:52.381Z,1.46
2022-12-04T14:44:28.021Z,1.44
2022-12-04T14:46:59.425Z,1.42
2022-12-04T14:49:58.590Z,1.42
2022-12-04T14:52:38.227Z,1.44
2022-12-04T14:55:28.813Z,1.43
2022-12-04T14:58:00.214Z,1.45
2022-12-04T15:00:26.789Z,1.45
2022-12-04T15:02:57.977Z,1.42
2022-12-04T15:05:28.778Z,1.42
2022-12-04T15:08:01.159Z,1.42
2022-12-04T15:10:51.351Z,1.41
2022-12-04T15:13:31.495Z,1.38
2022-12-04T15:16:04.846Z,1.37
2022-12-04T15:18:34.259Z,1.36
2022-12-04T15:21:07.053Z,1.39
2022-12-04T15:23:33.503Z,1.38
2022-12-04T15:26:03.505Z,1.37
2022-12-04T15:28:41.995Z,1.39
2022-12-04T15:31:15.333Z,1.41
2022-12-04T15:33:42.849Z,1.35
2022-12-04T15:36:15.919Z,1.37
2022-12-04T15:38:51.337Z,1.36
2022-12-04T15:41:35.890Z,1.33
2022-12-04T15:44:24.865Z,1.32
2022-12-04T15:46:53.741Z,1.33
2022-12-04T15:49:26.036Z,1.27
2022-12-04T15:52:16.763Z,1.29
2022-12-04T15:55:07.356Z,1.34
2022-12-04T15:57:39.462Z,1.34
2022-12-04T16:00:23.792Z,1.33
2022-12-04T16:02:52.716Z,1.33
2022-12-04T16:05:22.169Z,1.36
2022-12-04T16:08:05.240Z,1.33
2022-12-04T16:10:34.557Z,1.33
2022-12-04T16:13:03.457Z,1.34
2022-12-04T16:15:49.246Z,1.31
2022-12-04T16:18:21.319Z,1.32
2022-12-04T16:20:51.826Z,1.33
2022-12-04T16:23:18.667Z,1.31
2022-12-04T16:25:45.320Z,1.29
2022-12-04T16:28:11.867Z,1.29
2022-12-04T16:30:40.284Z,1.29
2022-12-04T16:33:07.023Z,1.27
2022-12-04T16:35:33.715Z,1.30
2022-12-04T16:38:00.248Z,1.32
2022-12-04T16:40:26.733Z,1.31
2022-12-04T16:42:53.216Z,1.29
2022-12-04T16:45:27.805Z,1.31
2022-12-04T16:47:54.497Z,1.29
2022-12-04T16:50:27.178Z,1.29
2022-12-04T16:52:54.687Z,1.30
2022-12-04T16:55:34.330Z,1.31
2022-12-04T16:58:02.310Z,1.31
2022-12-04T17:00:29.429Z,1.31
2022-12-04T17:02:56.241Z,1.29
2022-12-04T17:05:26.325Z,1.27
2022-12-04T17:07:54.097Z,1.28
2022-12-04T17:10:24.040Z,1.28
2022-12-04T17:12:59.190Z,1.28
2022-12-04T17:15:25.732Z,1.29
2022-12-04T17:17:52.249Z,1.30
2022-12-04T17:20:23.105Z,1.31
2022-12-04T17:22:49.969Z,1.30
2022-12-04T17:25:17.581Z,1.29
2022-12-04T17:27:46.750Z,1.26
2022-12-04T17:30:14.368Z,1.24
2022-12-04T17:32:41.154Z,1.26
2022-12-04T17:35:09.449Z,1.25
2022-12-04T17:37:36.457Z,1.23
2022-12-04T17:40:02.982Z,1.25
2022-12-04T17:45:27.956Z,1.21
2022-12-04T17:47:54.409Z,1.20
2022-12-04T17:50:20.927Z,1.18
2022-12-04T17:52:47.701Z,1.17
2022-12-04T17:55:14.234Z,1.17
2022-12-04T17:57:43.016Z,1.17
2022-12-04T18:00:11.678Z,1.17
2022-12-04T18:02:38.274Z,1.18
2022-12-04T18:05:05.122Z,1.20
2022-12-04T18:07:31.805Z,1.23
2022-12-04T18:10:02.181Z,1.22
2022-12-04T18:12:28.698Z,1.25
2022-12-04T18:14:55.505Z,1.25
2022-12-04T18:17:22.014Z,1.25
2022-12-04T18:19:48.537Z,1.26
2022-12-04T18:22:15.326Z,1.29
2022-12-04T18:24:41.813Z,1.32
2022-12-04T18:27:08.914Z,1.30
2022-12-04T18:29:37.292Z,1.26
2022-12-04T18:32:03.949Z,1.22
2022-12-04T18:34:32.412Z,1.28
2022-12-04T18:37:00.750Z,1.27
2022-12-04T18:39:27.298Z,1.28
2022-12-04T18:41:57.241Z,1.26
2022-12-04T18:44:26.453Z,1.29
2022-12-04T18:46:53.580Z,1.31
2022-12-04T18:49:22.028Z,1.31
2022-12-04T18:51:50.289Z,1.30
2022-12-04T18:54:20.354Z,1.30
2022-12-04T18:56:47.071Z,1.30
2022-12-04T18:59:16.881Z,1.31
2022-12-04T19:01:52.025Z,1.32
2022-12-04T19:04:22.601Z,1.31
2022-12-04T19:06:51.649Z,1.31
2022-12-04T19:09:20.927Z,1.30
2022-12-04T19:11:47.542Z,1.30
2022-12-04T19:14:23.122Z,1.31
2022-12-04T19:16:53.286Z,1.31
2022-12-04T19:19:20.079Z,1.29
2022-12-04T19:21:46.605Z,1.31
2022-12-04T19:24:15.794Z,1.32
2022-12-04T19:26:43.038Z,1.30
2022-12-04T19:29:13.738Z,1.31
2022-12-04T19:31:50.130Z,1.30
2022-12-04T19:34:20.045Z,1.31
2022-12-04T19:36:47.417Z,1.33
2022-12-04T19:39:13.997Z,1.32
2022-12-04T19:41:41.382Z,1.32
2022-12-04T19:44:46.271Z,1.31
2022-12-04T19:46:56.426Z,1.29
2022-12-04T19:49:22.976Z,1.29
2022-12-04T19:51:49.573Z,1.29
2022-12-04T19:54:24.704Z,1.28
2022-12-04T19:56:52.513Z,1.27
2022-12-04T19:59:20.420Z,1.27
2022-12-04T20:01:49.129Z,1.27
2022-12-04T20:04:15.702Z,1.27
2022-12-04T20:06:44.701Z,1.28
2022-12-04T20:09:15.258Z,1.28
2022-12-04T20:11:45.578Z,1.28
2022-12-04T20:14:12.164Z,1.28
2022-12-04T20:16:40.137Z,1.29
2022-12-04T20:19:08.455Z,1.30
2022-12-04T20:21:35.058Z,1.29
2022-12-04T20:24:07.592Z,1.30
2022-12-04T20:26:38.359Z,1.32
2022-12-04T20:29:06.555Z,1.33
2022-12-04T20:31:37.689Z,1.34
2022-12-04T20:34:13.944Z,1.35
2022-12-04T20:36:44.706Z,1.36
2022-12-04T20:39:12.737Z,1.38
2022-12-04T20:41:40.061Z,1.38
2022-12-04T20:44:10.301Z,1.40
2022-12-04T20:46:38.620Z,1.40
2022-12-04T20:49:08.625Z,1.41
2022-12-04T20:51:47.274Z,1.42
2022-12-04T20:54:17.820Z,1.42
2022-12-04T20:56:46.051Z,1.42
2022-12-04T20:59:17.393Z,1.43
2022-12-04T21:01:43.996Z,1.42
2022-12-04T21:04:12.704Z,1.42
2022-12-04T21:06:45.686Z,1.41
2022-12-04T21:09:14.821Z,1.40
2022-12-04T21:11:47.633Z,1.38
2022-12-04T21:14:37.467Z,1.36
2022-12-04T21:17:07.435Z,1.35
2022-12-04T21:19:33.995Z,1.34
2022-12-04T21:22:00.518Z,1.34
2022-12-04T21:24:28.908Z,1.33
2022-12-04T21:26:56.060Z,1.33
2022-12-04T21:29:24.920Z,1.32
2022-12-04T21:31:51.639Z,1.32
2022-12-04T21:34:18.404Z,1.33
2022-12-04T21:36:46.439Z,1.31
2022-12-04T21:39:14.468Z,1.33
2022-12-04T21:41:59.963Z,1.32
2022-12-04T21:44:28.290Z,1.30
2022-12-04T21:46:54.893Z,1.30
2022-12-04T21:49:21.409Z,1.30
2022-12-04T21:51:58.484Z,1.32
2022-12-04T21:54:26.756Z,1.31
2022-12-04T21:57:03.400Z,1.32
2022-12-04T21:59:31.149Z,1.31
2022-12-04T22:01:57.677Z,1.31
2022-12-04T22:04:31.330Z,1.31
2022-12-04T22:06:59.821Z,1.31
2022-12-04T22:09:26.286Z,1.32
2022-12-04T22:11:52.918Z,1.31
2022-12-04T22:14:19.486Z,1.30
2022-12-04T22:16:46.154Z,1.31
2022-12-04T22:19:23.044Z,1.31
2022-12-04T22:21:52.675Z,1.31
2022-12-04T22:24:19.209Z,1.31
2022-12-04T22:26:45.909Z,1.31
2022-12-04T22:29:48.524Z,1.30
2022-12-04T22:32:01.200Z,1.33
2022-12-04T22:34:27.997Z,1.34
2022-12-04T22:36:54.447Z,1.35
2022-12-04T22:39:22.689Z,1.36
2022-12-04T22:41:49.241Z,1.36
2022-12-04T22:44:15.776Z,1.39
2022-12-04T22:46:44.508Z,1.40
2022-12-04T22:49:11.144Z,1.40
2022-12-04T22:51:37.603Z,1.41
2022-12-04T22:54:10.190Z,1.43
2022-12-04T22:56:36.696Z,1.45
2022-12-04T22:59:03.186Z,1.44
2022-12-04T23:01:33.452Z,1.45
2022-12-04T23:04:01.885Z,1.43
2022-12-04T23:06:31.402Z,1.45
2022-12-04T23:09:03.364Z,1.43
2022-12-04T23:11:29.867Z,1.42
2022-12-04T23:14:00.268Z,1.43
2022-12-04T23:16:42.426Z,1.41
2022-12-04T23:19:12.500Z,1.39
2022-12-04T23:21:39.743Z,1.37
2022-12-04T23:24:06.799Z,1.36
2022-12-04T23:26:35.977Z,1.36
2022-12-04T23:29:03.209Z,1.34
2022-12-04T23:31:31.040Z,1.32
2022-12-04T23:34:03.065Z,1.32
2022-12-04T23:36:30.194Z,1.31
2022-12-04T23:38:58.481Z,1.31
2022-12-04T23:41:30.221Z,1.30
2022-12-04T23:43:57.526Z,1.29
2022-12-04T23:46:30.597Z,1.29
2022-12-04T23:48:57.209Z,1.30
2022-12-04T23:51:24.165Z,1.32
2022-12-04T23:54:02.440Z,1.34
2022-12-04T23:56:30.589Z,1.35
2022-12-04T23:58:57.489Z,1.35
